Time;durP1;ratioP1;P1;durP2;ratioP2;P2;SDS_P1;SDS_P2;PMS_P1;PMS_P2;Temp;Humidity;BMP_temperature;BMP_pressure;BME280_temperature;BME280_humidity;BME280_pressure;Samples;Min_cycle;Max_cycle;Signal;HPM_P1;HPM_P2
2022/04/27 00:01:07;;;;;;;52.10;23.65;;;;;;;6.78;67.68;100937.95;1741596;80;21556;-68
2022/04/27 00:03:33;;;;;;;46.30;21.20;;;;;;;6.80;67.74;100934.66;1741124;82;21863;-68
2022/04/27 00:05:59;;;;;;;42.38;22.05;;;;;;;6.83;67.78;100939.69;1741031;82;21044;-69
2022/04/27 00:08:25;;;;;;;43.83;21.10;;;;;;;6.83;67.86;100937.52;1744179;80;20941;-68
2022/04/27 00:10:51;;;;;;;40.92;21.73;;;;;;;6.84;67.90;100942.70;1759238;80;21001;-69
2022/04/27 00:13:17;;;;;;;42.75;22.02;;;;;;;6.85;67.97;100934.27;1755882;80;21038;-68
2022/04/27 00:15:44;;;;;;;43.05;21.17;;;;;;;6.85;68.00;100932.95;1744417;80;21047;-68
2022/04/27 00:18:10;;;;;;;38.67;19.17;;;;;;;6.85;68.05;100937.77;1744689;80;21056;-68
2022/04/27 00:20:36;;;;;;;41.20;19.45;;;;;;;6.84;68.10;100940.05;1741711;80;21517;-68
2022/04/27 00:23:02;;;;;;;26.57;13.78;;;;;;;6.87;68.13;100938.94;1741385;82;20966;-68
2022/04/27 00:25:28;;;;;;;21.42;10.75;;;;;;;6.84;68.19;100939.21;1741351;82;20997;-68
2022/04/27 00:27:54;;;;;;;20.90;11.93;;;;;;;6.83;68.22;100937.52;1744496;80;21040;-68
2022/04/27 00:30:21;;;;;;;20.90;11.68;;;;;;;6.79;68.26;100937.46;1741130;80;21053;-69
2022/04/27 00:32:47;;;;;;;25.35;12.88;;;;;;;6.75;68.29;100934.72;1741336;80;20993;-68
2022/04/27 00:35:13;;;;;;;29.07;17.75;;;;;;;6.74;68.29;100941.83;1741350;82;20962;-68
2022/04/27 00:37:39;;;;;;;26.93;16.37;;;;;;;6.69;68.34;100947.99;1741440;80;21024;-68
2022/04/27 00:40:06;;;;;;;26.55;16.15;;;;;;;6.64;68.38;100946.72;1742602;80;21125;-68
2022/04/27 00:42:32;;;;;;;32.20;17.60;;;;;;;6.60;68.42;100947.95;1741148;82;21010;-69
2022/04/27 00:44:58;;;;;;;25.45;15.43;;;;;;;6.57;68.45;100946.89;1741075;82;21061;-69
2022/04/27 00:47:26;;;;;;;29.95;15.53;;;;;;;6.53;68.48;100952.45;1741516;80;21021;-68
2022/04/27 00:49:52;;;;;;;29.20;16.42;;;;;;;6.52;68.55;100953.41;1741212;82;21045;-68
2022/04/27 00:52:19;;;;;;;32.42;15.85;;;;;;;6.49;68.57;100951.52;1741344;82;21130;-68
2022/04/27 00:54:51;;;;;;;37.17;17.42;;;;;;;6.49;68.63;100956.81;1744469;80;21025;-68
2022/04/27 00:57:18;;;;;;;34.75;17.65;;;;;;;6.45;68.67;100946.95;1757169;80;21703;-68
2022/04/27 00:59:47;;;;;;;47.50;21.07;;;;;;;6.43;68.73;100946.74;1757358;81;20993;-69
2022/04/27 01:02:13;;;;;;;36.73;18.70;;;;;;;6.38;68.78;100947.12;1756905;81;21080;-68
2022/04/27 01:04:39;;;;;;;29.98;19.07;;;;;;;6.33;68.85;100953.28;1744624;80;21104;-68
2022/04/27 01:07:06;;;;;;;38.30;20.45;;;;;;;6.27;68.94;100952.48;1741329;81;20886;-68
2022/04/27 01:09:32;;;;;;;41.80;22.22;;;;;;;6.19;68.98;100958.92;1741044;82;21072;-68
2022/04/27 01:11:58;;;;;;;37.95;21.60;;;;;;;6.15;69.06;100960.14;1741580;80;21021;-68
2022/04/27 01:14:25;;;;;;;33.63;20.23;;;;;;;6.07;69.14;100959.93;1728355;82;21544;-68
2022/04/27 01:16:52;;;;;;;32.65;18.65;;;;;;;6.01;69.24;100963.09;1744196;80;22142;-68
2022/04/27 01:19:19;;;;;;;25.50;16.17;;;;;;;5.96;69.32;100962.62;1757356;81;21057;-70
2022/04/27 01:21:45;;;;;;;32.88;17.73;;;;;;;5.94;69.36;100956.15;1755895;80;21033;-68
2022/04/27 01:24:11;;;;;;;28.45;17.15;;;;;;;5.96;69.41;100967.91;1711974;81;20918;-68
2022/04/27 01:26:37;;;;;;;30.88;18.52;;;;;;;5.93;69.46;100973.47;1757230;81;21478;-68
2022/04/27 01:29:04;;;;;;;25.82;17.30;;;;;;;5.89;69.51;100974.67;1757134;81;20946;-68
2022/04/27 01:31:30;;;;;;;35.17;19.02;;;;;;;5.81;69.59;100969.13;1755970;80;21036;-68
2022/04/27 01:33:57;;;;;;;30.85;18.48;;;;;;;5.74;69.64;100973.24;1740203;81;21040;-68
2022/04/27 01:36:23;;;;;;;31.02;18.60;;;;;;;5.68;69.68;100973.75;1741255;80;21011;-69
2022/04/27 01:38:49;;;;;;;30.80;19.10;;;;;;;5.64;69.74;100973.16;1788554;80;20875;-68
2022/04/27 01:41:16;;;;;;;39.08;18.52;;;;;;;5.60;69.81;100974.37;1787489;80;21146;-68
2022/04/27 01:43:42;;;;;;;33.53;18.45;;;;;;;5.53;69.88;100978.47;1749667;80;21057;-69
2022/04/27 01:46:09;;;;;;;49.33;24.65;;;;;;;5.46;69.97;100980.77;1788204;80;21056;-68
2022/04/27 01:48:35;;;;;;;47.58;25.50;;;;;;;5.40;70.05;100983.91;1788799;79;21005;-68
2022/04/27 01:51:01;;;;;;;38.05;22.32;;;;;;;5.31;70.17;100981.17;1788379;80;20989;-68
2022/04/27 01:56:11;;;;;;;52.58;27.15;;;;;;;5.18;70.28;100986.57;1743381;80;21068;-68
2022/04/27 01:58:37;;;;;;;58.52;30.57;;;;;;;5.17;70.36;100980.95;1713525;83;21039;-68
2022/04/27 02:01:03;;;;;;;55.20;28.47;;;;;;;5.14;70.42;100986.45;1719040;82;20944;-68
2022/04/27 02:03:29;;;;;;;48.85;26.30;;;;;;;5.12;70.51;100985.74;1721965;81;21008;-68
2022/04/27 02:05:56;;;;;;;51.73;27.00;;;;;;;5.11;70.56;100988.02;1734724;82;21138;-68
2022/04/27 02:08:23;;;;;;;53.73;26.77;;;;;;;5.07;70.60;100978.64;1755374;80;20986;-68
2022/04/27 02:10:49;;;;;;;48.92;25.77;;;;;;;5.02;70.68;100979.02;1736179;80;21078;-68
2022/04/27 02:13:14;;;;;;;49.03;26.25;;;;;;;4.97;70.76;100982.97;1740185;80;20889;-68
2022/04/27 02:15:41;;;;;;;47.95;26.30;;;;;;;4.95;70.80;100976.50;1743890;82;21074;-68
2022/04/27 02:18:08;;;;;;;53.42;26.65;;;;;;;4.88;70.86;100979.26;1744096;82;21122;-68
2022/04/27 02:20:34;;;;;;;52.60;29.70;;;;;;;4.85;70.93;100986.58;1741966;80;20992;-68
2022/04/27 02:23:00;;;;;;;50.43;27.52;;;;;;;4.82;71.00;100981.54;1737812;81;21019;-68
2022/04/27 02:25:26;;;;;;;61.53;29.65;;;;;;;4.78;71.08;100978.30;1737519;80;20881;-68
2022/04/27 02:27:52;;;;;;;49.58;28.90;;;;;;;4.75;71.14;100977.69;1738679;81;21557;-68
2022/04/27 02:30:19;;;;;;;49.90;27.05;;;;;;;4.74;71.24;100976.00;1730286;81;21938;-68
2022/04/27 02:32:47;;;;;;;51.70;28.00;;;;;;;4.74;71.33;100987.89;1734959;82;21031;-68
2022/04/27 02:35:14;;;;;;;46.45;26.95;;;;;;;4.72;71.37;100985.83;1739825;81;21532;-68
2022/04/27 02:37:40;;;;;;;44.38;25.62;;;;;;;4.73;71.41;100984.88;1739675;82;21011;-68
2022/04/27 02:40:12;;;;;;;48.25;26.17;;;;;;;4.74;71.48;100988.73;1693906;83;21052;-68
2022/04/27 02:42:35;;;;;;;56.25;27.58;;;;;;;4.73;71.52;100993.64;1691945;82;21076;-68
2022/04/27 02:45:01;;;;;;;49.80;28.85;;;;;;;4.69;71.57;100990.88;1721215;82;21041;-68
2022/04/27 02:47:27;;;;;;;52.20;25.17;;;;;;;4.65;71.64;100986.78;1712556;83;20913;-68
2022/04/27 02:52:37;;;;;;;35.85;22.27;;;;;;;4.57;71.77;100997.59;1710674;83;21080;-68
2022/04/27 02:55:04;;;;;;;47.17;22.93;;;;;;;4.52;71.81;100989.53;1709569;82;21103;-68
2022/04/27 02:57:30;;;;;;;44.30;23.98;;;;;;;4.48;71.87;100996.00;1710694;82;21010;-68
2022/04/27 02:59:56;;;;;;;43.30;24.07;;;;;;;4.44;71.94;100998.50;1710763;83;20984;-68
2022/04/27 03:02:22;;;;;;;44.05;24.65;;;;;;;4.41;72.01;100998.73;1710536;83;20890;-68
2022/04/27 03:04:48;;;;;;;45.85;25.97;;;;;;;4.38;72.06;100998.97;1710199;83;21494;-68
2022/04/27 03:07:14;;;;;;;47.45;27.87;;;;;;;4.37;72.14;101002.56;1704542;82;21903;-68
2022/04/27 03:09:40;;;;;;;48.90;28.32;;;;;;;4.35;72.22;101001.84;1682057;85;21049;-68
2022/04/27 03:12:07;;;;;;;48.75;28.12;;;;;;;4.36;72.29;101011.94;1682252;85;21057;-68
2022/04/27 03:14:34;;;;;;;48.58;26.48;;;;;;;4.30;72.33;101007.94;1700612;83;20990;-68
2022/04/27 03:17:00;;;;;;;47.27;28.65;;;;;;;4.26;72.40;101010.44;1710577;83;21029;-68
2022/04/27 03:19:26;;;;;;;52.35;27.67;;;;;;;4.24;72.46;101016.80;1710973;83;20965;-68
2022/04/27 03:21:52;;;;;;;54.00;29.37;;;;;;;4.22;72.54;101011.62;1710431;82;20991;-68
2022/04/27 03:24:18;;;;;;;48.10;25.72;;;;;;;4.21;72.59;101023.16;1710004;83;21108;-68
2022/04/27 03:26:44;;;;;;;42.95;25.05;;;;;;;4.18;72.65;101020.75;1710653;82;20997;-68
2022/04/27 03:29:10;;;;;;;48.70;26.87;;;;;;;4.19;72.73;101021.56;1718631;83;21006;-68
2022/04/27 03:31:36;;;;;;;50.25;24.95;;;;;;;4.18;72.79;101023.39;1718496;83;21301;-68
2022/04/27 03:34:02;;;;;;;56.60;24.82;;;;;;;4.18;72.83;101031.31;1717187;81;21007;-68
2022/04/27 03:36:28;;;;;;;50.23;26.05;;;;;;;4.19;72.90;101027.69;1717727;83;21030;-68
2022/04/27 03:38:54;;;;;;;45.38;26.07;;;;;;;4.20;72.95;101028.06;1717516;83;21022;-68
2022/04/27 03:41:22;;;;;;;48.65;25.00;;;;;;;4.20;73.05;101030.70;1717727;83;20896;-68
2022/04/27 03:43:49;;;;;;;43.90;23.35;;;;;;;4.22;73.08;101040.66;1717003;82;21884;-68
2022/04/27 03:46:15;;;;;;;41.02;22.67;;;;;;;4.24;73.13;101041.88;1717399;82;21003;-68
2022/04/27 03:48:41;;;;;;;37.60;23.38;;;;;;;4.24;73.16;101044.05;1711719;83;21054;-68
2022/04/27 03:51:07;;;;;;;52.00;24.90;;;;;;;4.24;73.22;101050.64;1715596;83;21520;-68
2022/04/27 03:53:34;;;;;;;35.60;23.22;;;;;;;4.21;73.25;101049.55;1714403;81;21074;-68
2022/04/27 03:56:00;;;;;;;35.90;24.70;;;;;;;4.14;73.29;101054.92;1718099;83;21065;-68
2022/04/27 03:58:26;;;;;;;38.40;26.05;;;;;;;4.07;73.33;101055.01;1688842;85;21041;-68
2022/04/27 04:00:52;;;;;;;38.20;22.67;;;;;;;4.01;73.40;101058.10;1717412;83;21587;-68
2022/04/27 04:03:18;;;;;;;41.68;24.63;;;;;;;3.99;73.46;101066.11;1733779;81;21371;-68
2022/04/27 04:05:44;;;;;;;35.60;23.95;;;;;;;4.03;73.53;101061.45;1758443;80;20862;-68
2022/04/27 04:08:10;;;;;;;39.48;25.23;;;;;;;4.12;73.60;101067.37;1691536;82;22085;-68
2022/04/27 04:10:36;;;;;;;37.10;23.67;;;;;;;4.21;73.65;101074.63;1714726;83;21013;-68
2022/04/27 04:13:02;;;;;;;41.10;24.35;;;;;;;4.27;73.68;101075.49;1696682;83;20869;-68
2022/04/27 04:15:28;;;;;;;44.70;24.20;;;;;;;4.30;73.74;101077.91;1709339;81;21081;-68
2022/04/27 04:17:54;;;;;;;47.43;25.97;;;;;;;4.38;73.79;101078.19;1724478;81;21060;-68
2022/04/27 04:20:21;;;;;;;53.48;26.70;;;;;;;4.47;73.82;101076.64;1717598;83;21117;-68
2022/04/27 04:22:47;;;;;;;45.60;22.87;;;;;;;4.58;73.85;101077.16;1717513;83;21079;-68
2022/04/27 04:30:42;;;;;;;48.85;24.72;;;;;;;4.87;73.98;101089.03;1730139;82;21066;-69
2022/04/27 04:33:08;;;;;;;48.23;25.92;;;;;;;4.96;74.04;101094.95;1779943;80;21173;-68
2022/04/27 04:35:35;;;;;;;37.58;22.32;;;;;;;5.04;74.06;101097.36;1788530;80;20984;-68
2022/04/27 04:38:01;;;;;;;41.58;21.97;;;;;;;5.13;74.11;101097.14;1759828;80;21010;-68
2022/04/27 04:40:27;;;;;;;48.23;26.20;;;;;;;5.22;74.14;101096.42;1710132;82;21593;-68
2022/04/27 04:42:53;;;;;;;46.15;24.98;;;;;;;5.21;74.16;101096.52;1748809;80;20995;-68
2022/04/27 04:45:19;;;;;;;49.83;24.12;;;;;;;5.25;74.21;101101.47;1740761;81;21132;-68
2022/04/27 04:47:45;;;;;;;56.60;30.85;;;;;;;5.32;74.26;101106.64;1739452;82;21049;-69
2022/04/27 04:50:12;;;;;;;80.38;39.15;;;;;;;5.37;74.27;101106.30;1731895;82;20876;-69
2022/04/27 04:52:38;;;;;;;70.65;34.23;;;;;;;5.43;74.29;101105.33;1711337;82;21059;-68
2022/04/27 04:55:05;;;;;;;70.78;37.15;;;;;;;5.49;74.32;101110.13;1738618;81;21075;-68
2022/04/27 04:57:31;;;;;;;79.50;37.15;;;;;;;5.53;74.35;101122.16;1740058;80;21131;-68
2022/04/27 04:59:58;;;;;;;76.80;34.60;;;;;;;5.64;74.41;101121.32;1709686;83;21013;-68
2022/04/27 05:02:24;;;;;;;59.85;31.73;;;;;;;5.77;74.44;101126.51;1701358;83;20999;-68
2022/04/27 05:04:53;;;;;;;68.85;27.75;;;;;;;5.86;74.44;101123.16;1744687;81;20994;-68
2022/04/27 05:07:19;;;;;;;61.95;30.23;;;;;;;5.95;74.50;101117.95;1777888;80;21053;-68
2022/04/27 05:09:46;;;;;;;62.90;31.20;;;;;;;6.09;74.52;101122.66;1717055;83;21523;-68
2022/04/27 05:12:12;;;;;;;64.67;32.03;;;;;;;6.22;74.54;101132.61;1707581;82;21019;-68
2022/04/27 05:14:38;;;;;;;64.60;35.33;;;;;;;6.34;74.57;101131.11;1721281;83;21059;-68
2022/04/27 05:17:04;;;;;;;88.62;42.70;;;;;;;6.42;74.58;101133.98;1738260;82;20993;-68
2022/04/27 05:19:30;;;;;;;80.28;40.65;;;;;;;6.48;74.62;101128.66;1746519;82;21060;-68
2022/04/27 05:21:56;;;;;;;95.32;42.20;;;;;;;6.56;74.66;101137.31;1709066;84;21001;-68
2022/04/27 05:24:23;;;;;;;69.03;36.15;;;;;;;6.68;74.71;101141.61;1709210;83;21491;-69
2022/04/27 05:26:49;;;;;;;73.50;36.85;;;;;;;6.75;74.72;101142.78;1709258;82;21001;-68
2022/04/27 05:32:00;;;;;;;69.65;35.40;;;;;;;6.96;74.77;101146.30;1697271;83;21072;-68
2022/04/27 05:34:29;;;;;;;84.30;39.45;;;;;;;7.11;74.81;101146.31;1712521;83;21698;-69
2022/04/27 05:36:55;;;;;;;82.37;38.70;;;;;;;7.17;74.77;101152.94;1707111;82;21460;-69
2022/04/27 05:39:21;;;;;;;77.75;35.98;;;;;;;7.21;74.81;101155.21;1755958;80;21577;-69
2022/04/27 05:41:53;;;;;;;75.08;37.05;;;;;;;7.30;74.84;101158.39;1788628;80;20986;-69
2022/04/27 05:44:21;;;;;;;69.70;34.88;;;;;;;7.42;74.87;101156.52;1766570;80;21001;-68
2022/04/27 05:46:49;;;;;;;70.40;34.55;;;;;;;7.52;74.88;101159.58;1744231;80;21748;-69
2022/04/27 05:49:15;;;;;;;72.08;35.45;;;;;;;7.65;74.89;101161.16;1747293;80;21040;-70
2022/04/27 05:51:41;;;;;;;70.30;34.53;;;;;;;7.77;74.89;101164.94;1764763;79;21005;-69
2022/04/27 05:54:07;;;;;;;83.27;35.48;;;;;;;7.90;74.90;101172.19;1757323;80;21028;-69
2022/04/27 05:56:33;;;;;;;58.40;33.73;;;;;;;8.03;74.91;101174.59;1733125;80;21048;-69
2022/04/27 05:59:00;;;;;;;58.68;32.05;;;;;;;8.14;74.92;101171.84;1733170;82;21152;-69
2022/04/27 06:01:26;;;;;;;56.88;32.40;;;;;;;8.28;74.93;101173.27;1738605;82;21560;-69
2022/04/27 06:03:53;;;;;;;72.10;34.05;;;;;;;8.40;74.94;101175.73;1709138;84;21521;-69
2022/04/27 06:06:23;;;;;;;62.65;32.20;;;;;;;8.53;74.92;101179.45;1707685;82;21040;-69
2022/04/27 06:08:50;;;;;;;64.47;36.20;;;;;;;8.69;74.91;101184.24;1754916;81;21478;-69
2022/04/27 06:11:16;;;;;;;77.27;39.63;;;;;;;8.78;74.88;101183.39;1736327;82;21965;-69
2022/04/27 06:13:43;;;;;;;78.75;38.42;;;;;;;8.86;74.84;101179.56;1736200;82;21068;-69
2022/04/27 06:16:10;;;;;;;82.42;37.70;;;;;;;8.97;74.78;101190.06;1735939;80;21029;-69
2022/04/27 06:18:36;;;;;;;74.27;36.23;;;;;;;9.06;74.75;101191.03;1723576;80;21510;-69
2022/04/27 06:21:02;;;;;;;72.97;34.18;;;;;;;9.14;74.65;101190.69;1737979;81;21693;-69
2022/04/27 06:23:30;;;;;;;56.92;29.18;;;;;;;9.24;74.58;101192.00;1748818;81;21156;-69
2022/04/27 06:25:57;;;;;;;54.35;27.93;;;;;;;9.33;74.48;101193.80;1745318;81;21065;-69
2022/04/27 06:28:23;;;;;;;43.52;24.52;;;;;;;9.45;74.40;101198.84;1753680;80;21430;-69
2022/04/27 06:30:49;;;;;;;41.92;25.00;;;;;;;9.62;74.33;101198.58;1748674;81;20896;-69
2022/04/27 06:33:15;;;;;;;42.25;24.12;;;;;;;9.80;74.24;101197.34;1741046;81;21098;-69
2022/04/27 06:35:41;;;;;;;42.65;23.02;;;;;;;10.02;74.12;101200.98;1700745;83;22137;-69
2022/04/27 06:38:07;;;;;;;44.33;24.85;;;;;;;10.23;73.97;101200.77;1725275;81;21123;-69
2022/04/27 06:40:34;;;;;;;46.92;25.95;;;;;;;10.41;73.81;101197.14;1724497;81;21015;-69
2022/04/27 06:43:00;;;;;;;56.10;30.77;;;;;;;10.73;73.63;101198.51;1742343;80;21045;-69
2022/04/27 06:45:27;;;;;;;48.65;28.92;;;;;;;11.02;73.41;101199.11;1736603;80;21047;-69
2022/04/27 06:47:54;;;;;;;61.58;35.88;;;;;;;11.28;73.22;101201.34;1737687;80;21155;-68
2022/04/27 06:50:21;;;;;;;58.98;34.58;;;;;;;11.45;72.95;101200.47;1736239;80;21044;-69
2022/04/27 06:52:47;;;;;;;57.17;34.70;;;;;;;11.74;72.72;101198.03;1738869;80;21126;-67
2022/04/27 06:55:14;;;;;;;54.00;34.35;;;;;;;12.39;72.53;101198.66;1722861;80;21502;-66
2022/04/27 06:57:40;;;;;;;42.13;25.60;;;;;;;13.02;72.12;101197.62;1748270;80;21020;-70
2022/04/27 07:00:10;;;;;;;35.85;23.95;;;;;;;13.46;71.61;101200.86;1738324;80;21158;-67
2022/04/27 07:02:36;;;;;;;36.05;22.75;;;;;;;14.01;71.19;101204.08;1737356;80;21082;-66
2022/04/27 07:05:03;;;;;;;34.92;22.35;;;;;;;14.29;70.62;101197.27;1737806;80;21024;-66
2022/04/27 07:07:29;;;;;;;33.55;22.17;;;;;;;14.35;70.08;101199.31;1736201;80;21012;-67
2022/04/27 07:09:55;;;;;;;29.32;18.60;;;;;;;14.22;69.41;101205.69;1736814;80;21075;-66
2022/04/27 07:12:21;;;;;;;38.08;23.07;;;;;;;14.05;68.96;101206.75;1737016;80;21666;-67
2022/04/27 07:14:52;;;;;;;33.42;23.55;;;;;;;13.92;68.51;101205.97;1740092;80;21057;-66
2022/04/27 07:17:15;;;;;;;35.58;23.60;;;;;;;13.84;68.03;101214.02;1737265;80;21512;-67
2022/04/27 07:19:41;;;;;;;39.67;24.85;;;;;;;13.81;67.63;101213.53;1736047;80;21025;-67
2022/04/27 07:22:07;;;;;;;35.83;24.90;;;;;;;13.78;67.23;101216.55;1741467;80;20926;-67
2022/04/27 07:24:34;;;;;;;43.00;25.60;;;;;;;13.78;66.80;101219.23;1729816;81;21137;-67
2022/04/27 07:27:00;;;;;;;37.53;24.10;;;;;;;13.72;66.49;101221.27;1751233;80;21068;-67
2022/04/27 07:29:26;;;;;;;41.35;25.52;;;;;;;13.67;66.12;101217.74;1727121;81;21072;-67
2022/04/27 07:31:52;;;;;;;33.40;22.90;;;;;;;13.67;65.79;101227.63;1723398;81;20911;-70
2022/04/27 07:34:18;;;;;;;34.50;22.73;;;;;;;13.66;65.16;101225.94;1735281;81;21074;-70
2022/04/27 07:36:44;;;;;;;30.90;19.30;;;;;;;13.66;65.16;101225.94;1731928;81;21517;-71
2022/04/27 07:39:10;;;;;;;40.38;23.00;;;;;;;13.66;64.87;101233.98;1718757;81;20941;-71
2022/04/27 07:41:36;;;;;;;34.33;22.27;;;;;;;13.71;64.58;101235.17;1728001;81;21078;-71
2022/04/27 07:44:02;;;;;;;31.27;20.12;;;;;;;13.77;64.33;101233.64;1738568;81;20929;-71
2022/04/27 07:46:29;;;;;;;30.43;19.40;;;;;;;13.80;63.99;101242.67;1723801;81;21056;-71
2022/04/27 07:48:55;;;;;;;26.00;17.50;;;;;;;13.77;63.69;101246.55;1728841;81;21877;-71
2022/04/27 07:51:21;;;;;;;25.37;17.45;;;;;;;13.49;63.15;101228.65;1743177;80;21002;-71
2022/04/27 07:53:47;;;;;;;25.85;17.12;;;;;;;13.49;63.15;101228.65;1730970;81;21107;-71
2022/04/27 07:56:14;;;;;;;22.07;14.95;;;;;;;13.61;62.78;101247.91;1732088;81;21060;-71
2022/04/27 07:58:40;;;;;;;21.20;14.65;;;;;;;13.60;62.61;101248.91;1728978;81;21038;-71
2022/04/27 08:01:06;;;;;;;34.67;17.87;;;;;;;13.62;62.34;101257.61;1714136;81;21143;-70
2022/04/27 08:03:32;;;;;;;24.67;17.37;;;;;;;13.62;62.10;101254.09;1731629;80;20888;-70
2022/04/27 08:05:58;;;;;;;23.85;14.90;;;;;;;13.65;61.89;101256.45;1769861;80;20982;-71
2022/04/27 08:08:24;;;;;;;20.62;13.30;;;;;;;13.69;61.65;101257.77;1736363;80;21015;-71
2022/04/27 08:10:50;;;;;;;22.10;15.95;;;;;;;13.66;61.36;101259.45;1761075;80;21732;-71
2022/04/27 08:13:16;;;;;;;27.82;17.80;;;;;;;13.65;61.19;101255.12;1729381;81;21109;-71
2022/04/27 08:15:42;;;;;;;25.85;15.65;;;;;;;13.71;61.00;101257.11;1731518;81;20885;-71
2022/04/27 08:18:08;;;;;;;21.55;14.68;;;;;;;13.83;60.82;101260.60;1727470;81;21122;-71
2022/04/27 08:23:29;;;;;;;23.75;15.05;;;;;;;14.05;60.32;101259.05;1742976;80;21027;-71
2022/04/27 08:25:58;;;;;;;20.55;12.70;;;;;;;14.10;60.04;101264.76;1728010;81;21131;-71
2022/04/27 08:28:24;;;;;;;28.02;13.88;;;;;;;14.11;59.83;101266.41;1728811;81;21007;-71
2022/04/27 08:30:50;;;;;;;24.40;13.95;;;;;;;14.14;59.32;101264.75;1723278;81;21051;-71
2022/04/27 08:33:17;;;;;;;21.97;13.18;;;;;;;14.14;59.32;101264.75;1717201;82;21068;-71
2022/04/27 08:35:43;;;;;;;25.85;14.73;;;;;;;14.25;59.02;101264.36;1739533;81;21031;-71
2022/04/27 08:38:09;;;;;;;20.32;14.13;;;;;;;14.25;59.02;101264.36;1736381;81;21035;-71
2022/04/27 08:40:37;;;;;;;25.23;12.78;;;;;;;14.32;58.86;101264.53;1725877;81;21009;-71
2022/04/27 08:43:03;;;;;;;19.45;13.15;;;;;;;14.37;58.93;101261.68;1739909;81;20980;-71
2022/04/27 08:45:29;;;;;;;17.32;10.40;;;;;;;14.53;58.79;101262.10;1733562;81;21481;-71
2022/04/27 08:47:55;;;;;;;12.47;9.15;;;;;;;14.67;58.70;101265.93;1716270;81;21090;-72
2022/04/27 08:50:23;;;;;;;13.58;9.60;;;;;;;14.79;58.52;101268.53;1739595;79;21053;-71
2022/04/27 08:52:50;;;;;;;19.45;10.58;;;;;;;14.88;58.33;101263.47;1731425;81;21514;-71
2022/04/27 08:55:17;;;;;;;14.73;10.18;;;;;;;15.12;58.19;101263.81;1730917;81;21083;-71
2022/04/27 08:57:43;;;;;;;15.88;10.30;;;;;;;15.27;57.97;101262.84;1736820;81;21519;-71
2022/04/27 09:00:12;;;;;;;12.78;9.25;;;;;;;15.51;57.77;101259.69;1739106;81;21081;-71
2022/04/27 09:02:39;;;;;;;11.78;8.60;;;;;;;15.78;57.48;101260.45;1747655;79;21524;-71
2022/04/27 09:05:11;;;;;;;12.33;8.80;;;;;;;16.03;57.17;101261.88;1730473;81;21030;-71
2022/04/27 09:07:52;;;;;;;12.70;9.28;;;;;;;16.30;56.88;101258.55;1717790;82;21071;-71
2022/04/27 09:10:21;;;;;;;13.62;8.13;;;;;;;16.72;56.56;101259.73;1703598;82;21027;-71
2022/04/27 09:12:55;;;;;;;8.00;6.47;;;;;;;16.92;55.97;101262.17;1707195;81;21045;-71
2022/04/27 09:15:24;;;;;;;10.85;7.40;;;;;;;17.08;55.74;101263.27;1723586;81;21147;-72
2022/04/27 09:23:41;;;;;;;8.43;5.83;;;;;;;17.91;54.41;101266.12;1689153;81;21049;-72
2022/04/27 09:26:22;;;;;;;8.08;5.62;;;;;;;17.92;53.77;101262.91;1730944;81;21731;-72
2022/04/27 09:28:50;;;;;;;10.90;5.00;;;;;;;17.97;53.33;101257.77;1732193;79;21283;-72
2022/04/27 09:31:34;;;;;;;4.75;3.37;;;;;;;18.18;52.96;101263.10;1741001;81;21093;-72
2022/04/27 09:34:02;;;;;;;3.75;3.15;;;;;;;18.34;52.35;101258.72;1744593;81;21066;-71
2022/04/27 09:36:29;;;;;;;8.25;4.72;;;;;;;18.45;51.61;101252.76;1739602;81;21479;-72
2022/04/27 09:38:58;;;;;;;5.42;3.75;;;;;;;18.71;51.04;101253.94;1739367;81;21132;-71
2022/04/27 09:41:42;;;;;;;5.15;3.47;;;;;;;18.50;50.25;101258.92;1756791;80;21091;-72
2022/04/27 09:44:12;;;;;;;4.95;3.27;;;;;;;18.14;49.77;101262.34;1752862;80;20998;-72
2022/04/27 09:46:40;;;;;;;6.40;3.60;;;;;;;17.81;49.19;101259.40;1689462;82;21014;-72
2022/04/27 09:49:11;;;;;;;12.50;7.03;;;;;;;17.52;48.74;101260.40;1750680;79;21522;-72
2022/04/27 09:51:48;;;;;;;7.05;4.67;;;;;;;17.37;48.37;101256.42;1741594;80;21053;-72
2022/04/27 09:54:20;;;;;;;8.18;5.05;;;;;;;17.27;48.08;101253.22;1742869;80;21535;-72
2022/04/27 09:56:55;;;;;;;7.35;5.55;;;;;;;17.23;47.74;101257.31;1720314;81;21167;-72
2022/04/27 09:59:27;;;;;;;7.87;5.60;;;;;;;17.16;47.42;101252.38;1726928;81;21485;-71
2022/04/27 10:01:58;;;;;;;9.30;5.83;;;;;;;17.02;47.11;101257.81;1761941;80;21049;-71
2022/04/27 10:04:28;;;;;;;9.65;4.53;;;;;;;16.95;47.04;101254.54;1745028;80;20989;-71
2022/04/27 10:06:58;;;;;;;9.05;5.90;;;;;;;16.97;46.89;101252.48;1740670;80;21663;-72
2022/04/27 10:09:27;;;;;;;8.13;4.75;;;;;;;16.95;46.74;101253.19;1727472;81;21034;-71
2022/04/27 10:11:58;;;;;;;4.72;3.85;;;;;;;17.01;46.59;101251.58;1728063;82;21000;-71
2022/04/27 10:14:28;;;;;;;5.50;3.22;;;;;;;17.08;46.41;101257.03;1759760;80;21133;-71
2022/04/27 10:16:54;;;;;;;;;;;;;;;17.04;46.15;101251.70;1739757;80;21058;-70
2022/04/27 10:19:20;;;;;;;6.15;4.03;;;;;;;17.10;46.05;101254.47;1724129;81;21067;-72
2022/04/27 10:21:57;;;;;;;7.22;4.33;;;;;;;17.12;45.82;101255.13;1755221;81;21057;-72
2022/04/27 10:24:49;;;;;;;12.80;4.87;;;;;;;17.18;45.69;101253.00;1736240;81;21520;-72
2022/04/27 10:27:36;;;;;;;5.00;3.42;;;;;;;17.15;45.42;101253.39;1724253;83;21037;-72
2022/04/27 10:30:10;;;;;;;14.20;6.05;;;;;;;17.02;45.15;101257.81;1739241;81;21073;-72
2022/04/27 10:32:43;;;;;;;6.53;4.05;;;;;;;16.92;45.09;101260.82;1742767;81;21135;-72
2022/04/27 10:35:21;;;;;;;6.90;3.98;;;;;;;16.91;44.96;101264.53;1753340;81;21033;-72
2022/04/27 10:37:57;;;;;;;14.90;9.10;;;;;;;16.82;44.86;101272.38;1734469;81;21534;-72
2022/04/27 10:40:39;;;;;;;19.40;8.73;;;;;;;16.77;44.85;101273.48;1730907;81;21087;-71
2022/04/27 10:43:15;;;;;;;7.12;5.08;;;;;;;16.70;44.76;101267.18;1704565;83;21495;-72
2022/04/27 10:45:44;;;;;;;7.37;5.50;;;;;;;16.78;44.78;101268.42;1693767;81;21148;-72
2022/04/27 10:48:27;;;;;;;4.95;4.05;;;;;;;16.73;44.74;101266.29;1725901;81;21018;-71
2022/04/27 10:51:03;;;;;;;7.75;4.60;;;;;;;16.65;44.79;101267.73;1713639;81;21477;-72
2022/04/27 10:53:30;;;;;;;6.58;4.62;;;;;;;16.63;44.75;101264.91;1724290;81;21003;-71
2022/04/27 10:55:58;;;;;;;6.42;4.50;;;;;;;16.68;44.76;101261.13;1696752;83;21029;-73
2022/04/27 10:58:31;;;;;;;10.50;4.65;;;;;;;16.67;44.64;101263.02;1718376;82;21053;-73
2022/04/27 11:01:06;;;;;;;6.62;5.60;;;;;;;16.67;44.52;101267.56;1718248;81;21626;-72
2022/04/27 11:03:36;;;;;;;10.32;6.80;;;;;;;16.69;44.46;101265.50;1723702;81;21041;-72
2022/04/27 11:06:11;;;;;;;11.63;6.42;;;;;;;16.62;44.40;101269.46;1719897;81;21104;-73
2022/04/27 11:09:03;;;;;;;9.25;6.12;;;;;;;16.59;44.47;101271.19;1718866;81;21030;-72
2022/04/27 11:11:31;;;;;;;6.78;5.55;;;;;;;16.60;44.46;101272.87;1718568;81;21267;-72
2022/04/27 11:14:06;;;;;;;8.05;6.12;;;;;;;16.50;44.51;101270.41;1718915;83;21085;-72
2022/04/27 11:16:44;;;;;;;11.95;6.05;;;;;;;16.56;44.67;101276.95;1719413;81;21536;-72
2022/04/27 11:19:10;;;;;;;12.03;7.10;;;;;;;16.65;44.75;101274.97;1719755;81;21537;-72
2022/04/27 11:21:37;;;;;;;11.90;6.85;;;;;;;16.58;44.92;101247.13;1742400;81;21628;-73
2022/04/27 11:24:05;;;;;;;9.38;5.75;;;;;;;16.83;44.80;101274.91;1739503;80;21078;-72
2022/04/27 11:26:33;;;;;;;11.88;6.17;;;;;;;16.86;44.72;101278.56;1767595;81;20986;-72
2022/04/27 11:28:59;;;;;;;8.55;5.12;;;;;;;16.86;44.69;101277.72;1721857;81;21492;-72
2022/04/27 11:31:25;;;;;;;7.37;4.95;;;;;;;16.86;44.63;101281.26;1770063;80;21011;-72
2022/04/27 11:33:51;;;;;;;8.05;4.97;;;;;;;16.84;44.58;101282.48;1752167;79;21049;-72
2022/04/27 11:36:24;;;;;;;12.65;7.08;;;;;;;16.72;44.54;101281.28;1713775;82;21032;-72
2022/04/27 11:38:51;;;;;;;6.80;4.70;;;;;;;16.72;44.46;101277.23;1713368;82;20967;-72
2022/04/27 11:41:19;;;;;;;9.50;4.97;;;;;;;16.71;44.36;101276.40;1749634;80;20998;-72